Time;durP1;ratioP1;P1;durP2;ratioP2;P2;SDS_P1;SDS_P2;PMS_P1;PMS_P2;Temp;Humidity;BMP_temperature;BMP_pressure;BME280_temperature;BME280_humidity;BME280_pressure;Samples;Min_cycle;Max_cycle;Signal;HPM_P1;HPM_P2
2022/04/30 00:00:29;;;;;;;1.73;1.10;;;20.80;41.20;;;;;;5057951;28;20017;-55
2022/04/30 00:03:00;;;;;;;1.13;0.90;;;20.80;41.20;;;;;;5057938;28;20096;-57
2022/04/30 00:05:32;;;;;;;2.08;1.10;;;20.80;41.20;;;;;;5057524;28;20025;-55
2022/04/30 00:07:59;;;;;;;1.55;1.20;;;20.80;41.20;;;;;;5056443;28;20052;-55
2022/04/30 00:10:27;;;;;;;1.48;1.15;;;20.80;41.20;;;;;;5057438;28;20017;-57
2022/04/30 00:12:53;;;;;;;1.30;1.02;;;20.80;41.20;;;;;;5057013;28;20017;-57
2022/04/30 00:15:20;;;;;;;1.25;1.00;;;20.80;41.20;;;;;;5056684;28;20021;-54
2022/04/30 00:17:46;;;;;;;1.52;1.05;;;20.80;41.20;;;;;;5056909;28;20052;-55
2022/04/30 00:20:12;;;;;;;1.35;1.02;;;20.80;41.20;;;;;;5056821;28;20013;-55
2022/04/30 00:22:41;;;;;;;1.45;0.98;;;20.80;41.20;;;;;;5056106;28;20041;-55
2022/04/30 00:25:08;;;;;;;1.42;0.95;;;20.80;41.20;;;;;;5056120;28;20551;-56
2022/04/30 00:27:37;;;;;;;2.70;0.90;;;20.80;41.20;;;;;;5054916;28;21093;-55
2022/04/30 00:30:03;;;;;;;1.77;1.20;;;20.80;41.20;;;;;;5056341;28;20013;-56
2022/04/30 00:32:31;;;;;;;1.95;1.10;;;20.80;41.20;;;;;;5056110;28;20101;-54
2022/04/30 00:34:59;;;;;;;2.90;1.25;;;20.80;41.20;;;;;;5055973;28;20049;-55
2022/04/30 00:37:26;;;;;;;1.40;1.30;;;20.70;41.20;;;;;;5055188;28;20025;-55
2022/04/30 00:39:52;;;;;;;2.30;1.30;;;20.80;41.20;;;;;;5056498;28;20025;-55
2022/04/30 00:42:18;;;;;;;1.83;1.17;;;20.80;41.20;;;;;;5056298;28;20021;-57
2022/04/30 00:44:47;;;;;;;1.60;1.10;;;20.70;41.20;;;;;;5055872;28;20032;-55
2022/04/30 00:47:16;;;;;;;1.83;0.95;;;20.70;41.20;;;;;;5055631;28;20096;-55
2022/04/30 00:49:43;;;;;;;1.48;1.10;;;20.70;41.20;;;;;;5055538;28;20021;-54
2022/04/30 00:52:13;;;;;;;2.13;1.00;;;20.70;41.20;;;;;;5056327;28;20060;-55
2022/04/30 00:54:40;;;;;;;1.70;1.20;;;20.70;41.20;;;;;;5055726;28;20005;-55
2022/04/30 00:57:09;;;;;;;1.83;0.93;;;20.70;41.20;;;;;;5037990;28;20020;-53
2022/04/30 00:59:37;;;;;;;1.10;0.95;;;20.70;41.20;;;;;;5055343;28;20067;-54
2022/04/30 01:02:03;;;;;;;2.03;1.20;;;20.70;41.20;;;;;;5054309;28;20016;-54
2022/04/30 01:04:32;;;;;;;2.20;1.33;;;20.70;41.20;;;;;;5055216;28;20025;-55
2022/04/30 01:07:00;;;;;;;1.77;1.17;;;20.70;41.20;;;;;;5055446;28;20070;-55
2022/04/30 01:09:32;;;;;;;2.08;1.27;;;20.70;41.20;;;;;;5055677;28;20017;-56
2022/04/30 01:12:08;;;;;;;1.52;1.10;;;20.70;41.20;;;;;;5054798;28;20013;-55
2022/04/30 01:14:34;;;;;;;2.35;1.17;;;20.70;41.20;;;;;;5056263;28;20463;-55
2022/04/30 01:17:04;;;;;;;1.27;1.17;;;20.70;41.20;;;;;;5056505;28;20015;-57
2022/04/30 01:19:30;;;;;;;1.17;0.75;;;20.70;41.20;;;;;;5056277;28;20092;-55
2022/04/30 01:21:58;;;;;;;1.27;0.93;;;20.70;41.20;;;;;;5071569;28;20068;-54
2022/04/30 01:24:25;;;;;;;1.85;0.90;;;20.70;41.20;;;;;;5054723;28;20498;-54
2022/04/30 01:26:56;;;;;;;1.38;0.88;;;20.60;41.20;;;;;;5055484;28;20530;-57
2022/04/30 01:29:23;;;;;;;1.60;1.20;;;20.60;41.20;;;;;;5055399;28;20013;-54
2022/04/30 01:37:25;;;;;;;1.13;1.02;;;20.60;41.10;;;;;;5055267;28;20052;-54
2022/04/30 01:39:58;;;;;;;1.67;1.00;;;20.60;41.20;;;;;;5054777;28;20100;-54
2022/04/30 01:42:24;;;;;;;1.90;1.05;;;20.60;41.20;;;;;;5053602;28;20031;-52
2022/04/30 01:44:50;;;;;;;1.35;1.10;;;20.60;41.20;;;;;;5069801;28;20009;-54
2022/04/30 01:47:16;;;;;;;1.80;1.20;;;20.60;41.20;;;;;;5053095;28;20100;-54
2022/04/30 01:49:43;;;;;;;1.52;1.00;;;20.60;41.20;;;;;;5055338;28;20048;-54
2022/04/30 01:52:09;;;;;;;1.08;0.95;;;20.60;41.20;;;;;;5056167;28;20024;-54
2022/04/30 01:54:35;;;;;;;1.60;1.00;;;20.60;41.20;;;;;;5056220;28;20499;-57
2022/04/30 01:57:02;;;;;;;1.58;1.15;;;20.60;41.20;;;;;;5055518;28;20092;-54
2022/04/30 01:59:28;;;;;;;1.10;0.90;;;20.50;41.10;;;;;;5054758;28;20021;-57
2022/04/30 02:01:54;;;;;;;1.23;0.90;;;20.60;41.20;;;;;;5055028;28;20010;-55
2022/04/30 02:04:20;;;;;;;1.80;1.10;;;20.50;41.10;;;;;;5055396;28;20106;-56
2022/04/30 02:06:46;;;;;;;1.98;0.93;;;20.50;41.10;;;;;;5055645;28;20062;-55
2022/04/30 02:09:15;;;;;;;1.90;1.25;;;20.50;41.20;;;;;;5056941;28;20027;-57
2022/04/30 02:11:42;;;;;;;1.33;1.05;;;20.50;41.20;;;;;;5057040;28;20051;-55
2022/04/30 02:14:08;;;;;;;1.63;1.00;;;20.50;41.20;;;;;;5055828;28;20013;-57
2022/04/30 02:16:33;;;;;;;1.13;1.00;;;20.50;41.20;;;;;;5054265;28;20025;-57
2022/04/30 02:19:02;;;;;;;1.02;0.90;;;20.50;41.20;;;;;;5053853;28;20017;-55
2022/04/30 02:21:29;;;;;;;3.20;1.00;;;20.50;41.30;;;;;;5053655;28;20053;-55
2022/04/30 02:23:58;;;;;;;1.27;0.95;;;20.50;41.20;;;;;;5054745;28;20024;-57
2022/04/30 02:26:27;;;;;;;1.58;1.10;;;20.50;41.30;;;;;;5053378;28;20029;-53
2022/04/30 02:28:58;;;;;;;3.33;1.02;;;20.50;41.20;;;;;;5054877;28;20013;-56
2022/04/30 02:31:25;;;;;;;1.30;0.90;;;20.50;41.20;;;;;;5054791;28;20151;-56
2022/04/30 02:33:55;;;;;;;1.55;1.00;;;20.50;41.20;;;;;;5052941;28;20032;-54
2022/04/30 02:36:26;;;;;;;1.95;1.10;;;20.50;41.20;;;;;;5054067;28;20407;-56
2022/04/30 02:38:56;;;;;;;1.25;0.88;;;20.50;41.20;;;;;;5053812;28;20021;-53
2022/04/30 02:41:22;;;;;;;1.77;0.88;;;20.40;41.10;;;;;;5056123;28;20043;-54
2022/04/30 02:43:51;;;;;;;1.58;1.15;;;20.50;41.10;;;;;;5054165;28;20527;-53
2022/04/30 02:46:18;;;;;;;1.45;0.98;;;20.50;41.10;;;;;;5054125;28;20075;-55
2022/04/30 02:48:43;;;;;;;1.48;1.08;;;20.40;41.20;;;;;;5054357;28;20017;-53
2022/04/30 02:51:10;;;;;;;1.13;0.93;;;20.50;41.20;;;;;;5037383;28;20039;-55
2022/04/30 02:53:39;;;;;;;1.10;1.00;;;20.50;41.20;;;;;;5054650;28;20013;-53
2022/04/30 02:56:05;;;;;;;1.13;0.93;;;20.50;41.20;;;;;;5053493;28;20021;-53
2022/04/30 03:01:16;;;;;;;1.20;1.00;;;20.40;41.20;;;;;;5054488;28;20094;-55
2022/04/30 03:03:42;;;;;;;1.42;1.00;;;20.40;41.20;;;;;;5054378;28;20029;-55
2022/04/30 03:06:12;;;;;;;1.48;1.02;;;20.40;41.20;;;;;;5055675;28;20094;-55
2022/04/30 03:08:39;;;;;;;1.83;1.08;;;20.40;41.20;;;;;;5054791;28;20471;-54
2022/04/30 03:11:05;;;;;;;1.40;1.08;;;20.40;41.20;;;;;;5053267;28;20052;-53
2022/04/30 03:13:30;;;;;;;1.55;0.90;;;20.40;41.20;;;;;;5053137;28;20056;-55
2022/04/30 03:21:41;;;;;;;1.77;0.93;;;20.40;41.20;;;;;;5052320;28;20475;-54
2022/04/30 03:21:42;;;;;;;4.03;0.95;;;20.40;41.20;;;;;;5053157;28;20048;-54
2022/04/30 03:24:12;;;;;;;1.50;1.08;;;20.40;41.20;;;;;;5053522;28;20089;-54
2022/04/30 03:26:39;;;;;;;1.35;0.95;;;20.30;41.20;;;;;;5054012;28;20028;-57
2022/04/30 03:29:05;;;;;;;3.03;0.85;;;20.40;41.20;;;;;;5054623;28;20021;-55
2022/04/30 03:31:32;;;;;;;1.50;0.80;;;20.40;41.20;;;;;;5054413;28;20613;-55
2022/04/30 03:33:58;;;;;;;1.13;0.88;;;20.40;41.20;;;;;;5054457;28;20010;-57
2022/04/30 03:36:23;;;;;;;2.63;0.90;;;20.30;41.20;;;;;;5053000;28;20250;-54
2022/04/30 03:38:49;;;;;;;1.15;0.95;;;20.30;41.20;;;;;;5053565;28;20020;-53
2022/04/30 03:41:18;;;;;;;0.98;0.90;;;20.30;41.20;;;;;;5052195;28;20021;-55
2022/04/30 03:43:43;;;;;;;1.23;0.88;;;20.30;41.20;;;;;;5052342;28;20029;-54
2022/04/30 03:46:10;;;;;;;1.48;1.00;;;20.30;41.20;;;;;;5051997;28;20021;-54
2022/04/30 03:48:36;;;;;;;2.67;1.15;;;20.30;41.70;;;;;;5053812;28;20080;-55
2022/04/30 03:51:03;;;;;;;1.25;0.90;;;20.30;41.20;;;;;;5070810;28;20067;-53
2022/04/30 03:53:28;;;;;;;1.55;1.00;;;20.30;41.20;;;;;;5057369;28;20101;-55
2022/04/30 03:55:57;;;;;;;2.40;1.10;;;20.30;41.20;;;;;;5058605;28;20036;-55
2022/04/30 03:58:23;;;;;;;1.35;0.90;;;20.30;41.20;;;;;;5060329;28;20055;-57
2022/04/30 04:00:49;;;;;;;1.15;0.90;;;20.30;41.20;;;;;;5059918;28;20025;-57
2022/04/30 04:03:15;;;;;;;1.65;1.02;;;20.30;41.30;;;;;;5060002;28;20379;-54
2022/04/30 04:05:41;;;;;;;1.45;0.95;;;20.30;41.30;;;;;;5059710;28;20025;-58
2022/04/30 04:08:12;;;;;;;3.20;0.95;;;20.30;41.30;;;;;;5059066;28;20024;-58
2022/04/30 04:10:39;;;;;;;1.23;0.98;;;20.30;41.30;;;;;;5059046;28;20017;-54
2022/04/30 04:18:35;;;;;;;2.55;1.10;;;20.30;41.20;;;;;;5059327;28;20031;-57
2022/04/30 04:21:02;;;;;;;1.83;0.82;;;20.20;41.20;;;;;;5059308;28;20078;-57
2022/04/30 04:25:58;;;;;;;1.60;1.10;;;20.20;41.20;;;;;;5059326;28;20075;-54
2022/04/30 04:26:14;;;;;;;1.27;1.00;;;20.20;41.20;;;;;;5059113;28;20033;-55
2022/04/30 04:28:40;;;;;;;2.15;0.90;;;20.20;41.20;;;;;;5058517;28;20021;-57
2022/04/30 04:31:06;;;;;;;1.63;1.00;;;20.20;41.70;;;;;;5058788;28;20100;-56
2022/04/30 04:33:33;;;;;;;2.05;1.05;;;20.20;41.20;;;;;;5059463;28;20364;-55
2022/04/30 04:35:59;;;;;;;1.25;0.98;;;20.20;41.20;;;;;;5059240;28;20045;-56
2022/04/30 04:38:26;;;;;;;3.10;1.10;;;20.20;41.20;;;;;;5060023;28;20025;-56
2022/04/30 04:40:53;;;;;;;2.95;1.40;;;20.20;41.20;;;;;;5057825;28;20031;-57
2022/04/30 04:43:20;;;;;;;3.10;0.90;;;20.20;41.20;;;;;;5059283;28;20021;-53
2022/04/30 04:45:48;;;;;;;1.35;0.85;;;20.20;41.20;;;;;;5058234;28;20155;-55
2022/04/30 04:48:14;;;;;;;1.15;0.95;;;20.20;41.30;;;;;;5058402;28;20041;-54
2022/04/30 04:50:40;;;;;;;1.27;1.02;;;20.20;41.30;;;;;;5057649;28;20020;-57
2022/04/30 04:53:06;;;;;;;1.30;0.88;;;20.20;41.30;;;;;;5057745;28;20013;-57
2022/04/30 04:55:32;;;;;;;1.25;0.88;;;20.20;41.20;;;;;;5055831;28;20047;-58
2022/04/30 04:57:59;;;;;;;1.00;0.90;;;20.20;41.30;;;;;;5057341;28;20049;-56
2022/04/30 05:00:26;;;;;;;2.08;0.85;;;20.20;41.20;;;;;;5058088;28;20025;-55
2022/04/30 05:02:56;;;;;;;0.90;0.80;;;20.20;41.20;;;;;;5056589;28;20021;-57
2022/04/30 05:05:22;;;;;;;0.80;0.80;;;20.20;41.20;;;;;;5058278;28;20021;-57
2022/04/30 05:07:50;;;;;;;1.38;0.85;;;20.10;41.20;;;;;;5059367;28;20028;-56
2022/04/30 05:10:15;;;;;;;1.25;0.90;;;20.10;41.20;;;;;;5059059;28;20018;-57
2022/04/30 05:12:45;;;;;;;1.77;1.13;;;20.20;41.20;;;;;;5059410;28;20553;-58
2022/04/30 05:15:12;;;;;;;1.15;0.88;;;20.20;41.20;;;;;;5059019;28;20036;-57
2022/04/30 05:17:38;;;;;;;1.15;0.90;;;20.20;41.20;;;;;;5057334;28;20444;-55
2022/04/30 05:20:07;;;;;;;1.08;0.98;;;20.10;41.20;;;;;;5056562;28;20021;-57
2022/04/30 05:22:33;;;;;;;1.27;0.80;;;20.10;41.30;;;;;;5056185;28;20059;-57
2022/04/30 05:24:59;;;;;;;1.70;0.93;;;20.10;41.20;;;;;;5055699;28;20029;-54
2022/04/30 05:27:25;;;;;;;1.58;1.10;;;20.10;41.80;;;;;;5070457;28;20056;-56
2022/04/30 05:29:51;;;;;;;1.00;0.80;;;20.10;41.20;;;;;;5053495;28;20507;-55
2022/04/30 05:32:18;;;;;;;1.40;0.90;;;20.10;41.20;;;;;;5054771;28;20013;-53
2022/04/30 05:34:43;;;;;;;0.73;0.73;;;20.10;41.20;;;;;;5054211;28;20033;-54
2022/04/30 05:37:09;;;;;;;1.65;0.90;;;20.10;41.20;;;;;;5053264;28;20025;-54
2022/04/30 05:39:35;;;;;;;1.10;0.80;;;20.10;41.20;;;;;;5069700;28;20017;-54
2022/04/30 05:42:01;;;;;;;1.20;0.70;;;20.10;41.20;;;;;;5052906;28;20147;-54
2022/04/30 05:44:27;;;;;;;1.77;1.08;;;20.10;41.20;;;;;;5036442;28;20024;-54
2022/04/30 05:46:53;;;;;;;1.13;0.90;;;20.20;41.20;;;;;;5054282;28;20033;-54
2022/04/30 05:49:18;;;;;;;0.93;0.90;;;20.10;41.20;;;;;;5054688;28;20036;-56
2022/04/30 05:51:44;;;;;;;1.15;1.00;;;20.10;41.20;;;;;;5054627;28;20090;-57
2022/04/30 05:54:10;;;;;;;1.60;0.98;;;20.10;41.20;;;;;;5054699;28;20052;-55
2022/04/30 05:56:36;;;;;;;1.83;0.82;;;20.10;41.20;;;;;;5054392;28;20028;-57
2022/04/30 05:59:03;;;;;;;1.73;0.90;;;20.10;41.10;;;;;;5053360;28;20021;-54
2022/04/30 06:01:29;;;;;;;3.40;0.85;;;20.10;41.20;;;;;;5054642;28;20044;-58
2022/04/30 06:03:55;;;;;;;0.75;0.70;;;20.10;41.20;;;;;;5055370;28;20040;-55
2022/04/30 06:06:21;;;;;;;1.23;0.90;;;20.10;41.10;;;;;;5054820;28;20108;-53
2022/04/30 06:08:47;;;;;;;1.00;0.93;;;20.10;41.20;;;;;;5054417;28;20460;-55
2022/04/30 06:11:14;;;;;;;1.08;0.80;;;20.10;41.10;;;;;;5054701;28;20009;-57
2022/04/30 06:13:40;;;;;;;1.38;0.90;;;20.10;41.10;;;;;;5054797;28;20028;-54
2022/04/30 06:16:06;;;;;;;1.38;0.90;;;20.10;41.20;;;;;;5054653;28;20021;-54
2022/04/30 06:18:32;;;;;;;0.93;0.80;;;20.10;41.10;;;;;;5055053;28;20028;-56
2022/04/30 06:20:58;;;;;;;1.33;1.02;;;20.10;41.10;;;;;;5070598;28;20025;-53
2022/04/30 06:23:25;;;;;;;1.40;0.90;;;20.10;41.10;;;;;;5054877;28;20059;-55
2022/04/30 06:25:51;;;;;;;1.92;1.20;;;20.10;41.10;;;;;;5057055;28;20028;-55
2022/04/30 06:28:19;;;;;;;1.52;1.00;;;20.10;41.10;;;;;;5059280;28;20088;-56
2022/04/30 06:30:45;;;;;;;1.00;0.90;;;20.10;41.10;;;;;;5058363;28;20013;-53
2022/04/30 06:33:11;;;;;;;1.98;1.05;;;20.10;41.10;;;;;;5058104;28;20043;-56
2022/04/30 06:35:37;;;;;;;1.92;1.10;;;20.10;41.10;;;;;;5056846;28;20045;-55
2022/04/30 06:38:04;;;;;;;1.30;0.98;;;20.10;41.70;;;;;;5056253;28;20068;-54
2022/04/30 06:40:31;;;;;;;1.13;0.93;;;20.10;41.10;;;;;;5054014;28;20025;-55
2022/04/30 06:42:57;;;;;;;1.85;1.20;;;20.10;41.10;;;;;;5054101;28;20029;-55
2022/04/30 06:45:23;;;;;;;0.95;0.80;;;20.10;41.10;;;;;;5053783;28;20104;-54
2022/04/30 06:47:49;;;;;;;1.52;0.85;;;20.10;41.10;;;;;;5068708;28;20124;-54
2022/04/30 06:50:15;;;;;;;1.58;1.08;;;20.10;41.20;;;;;;5052190;28;20021;-56
2022/04/30 06:58:11;;;;;;;1.77;1.00;;;20.10;41.20;;;;;;5053723;28;20037;-54
2022/04/30 07:03:27;;;;;;;1.05;0.80;;;20.10;41.10;;;;;;5054200;28;20547;-54
2022/04/30 07:05:56;;;;;;;0.85;0.77;;;20.10;41.10;;;;;;5054492;28;20480;-53
2022/04/30 07:08:22;;;;;;;1.13;0.90;;;20.10;41.10;;;;;;5054248;28;20565;-57
2022/04/30 07:10:49;;;;;;;1.50;0.95;;;20.10;41.10;;;;;;5055192;28;20044;-57
2022/04/30 07:13:16;;;;;;;1.05;0.90;;;20.10;41.10;;;;;;5054441;28;20013;-56
2022/04/30 07:15:42;;;;;;;3.05;1.08;;;20.10;41.10;;;;;;5054639;28;20074;-56
2022/04/30 07:18:08;;;;;;;1.38;0.90;;;20.10;41.10;;;;;;5054491;28;20013;-58
2022/04/30 07:20:35;;;;;;;1.45;1.17;;;20.10;41.10;;;;;;5052953;28;20468;-58
2022/04/30 07:23:01;;;;;;;1.40;1.00;;;20.10;41.10;;;;;;5053968;28;20114;-57
2022/04/30 07:25:27;;;;;;;1.15;0.82;;;20.20;41.00;;;;;;5055057;28;20033;-54
2022/04/30 07:27:54;;;;;;;0.98;0.73;;;20.20;41.00;;;;;;5056738;28;20428;-53
2022/04/30 07:30:21;;;;;;;1.13;0.88;;;20.20;40.90;;;;;;5058202;28;20037;-53
2022/04/30 07:32:47;;;;;;;0.98;0.88;;;20.20;40.80;;;;;;5058221;28;20578;-53
2022/04/30 07:35:13;;;;;;;1.90;1.15;;;20.20;40.90;;;;;;5057308;28;20021;-51
2022/04/30 07:37:40;;;;;;;1.13;0.77;;;20.20;40.80;;;;;;5057799;28;20017;-52
2022/04/30 07:40:08;;;;;;;2.50;1.30;;;20.20;40.80;;;;;;5056073;28;20464;-53
2022/04/30 07:42:34;;;;;;;1.23;0.98;;;20.20;40.80;;;;;;5057086;28;20021;-53
2022/04/30 07:45:01;;;;;;;1.60;0.93;;;20.20;40.80;;;;;;5056710;28;20373;-53
2022/04/30 07:47:29;;;;;;;2.33;1.05;;;20.20;40.80;;;;;;5055435;28;20039;-52
2022/04/30 07:49:55;;;;;;;1.40;0.98;;;20.20;40.70;;;;;;5056417;28;20021;-49
2022/04/30 07:52:21;;;;;;;1.55;1.00;;;20.20;40.80;;;;;;5056267;28;20028;-52
2022/04/30 07:54:47;;;;;;;1.23;0.95;;;20.20;40.80;;;;;;5056271;28;20485;-52
2022/04/30 07:57:13;;;;;;;1.27;0.90;;;20.20;40.80;;;;;;5056216;28;20064;-52
2022/04/30 07:59:38;;;;;;;1.98;1.00;;;20.20;40.80;;;;;;5055012;28;20123;-48
2022/04/30 08:02:06;;;;;;;1.88;1.10;;;20.20;40.70;;;;;;5056434;28;20070;-53
2022/04/30 08:04:31;;;;;;;0.95;0.90;;;20.20;40.70;;;;;;5055802;28;20468;-58
2022/04/30 08:06:59;;;;;;;1.10;0.90;;;20.20;40.70;;;;;;5055154;28;20496;-51
2022/04/30 08:09:25;;;;;;;1.35;0.85;;;20.20;40.70;;;;;;5055185;28;20105;-52
2022/04/30 08:11:51;;;;;;;4.95;1.00;;;20.20;40.70;;;;;;5056740;28;20100;-54
2022/04/30 08:14:16;;;;;;;1.63;0.90;;;20.20;40.70;;;;;;5056311;28;20017;-51
2022/04/30 08:16:42;;;;;;;1.40;0.98;;;20.20;40.70;;;;;;5054862;28;20067;-53
2022/04/30 08:19:08;;;;;;;1.95;1.00;;;20.20;40.60;;;;;;5056423;28;20514;-51
2022/04/30 08:21:34;;;;;;;2.03;1.13;;;20.20;40.60;;;;;;5056743;28;20496;-54
2022/04/30 08:24:00;;;;;;;1.23;0.88;;;20.20;40.60;;;;;;5055508;28;20021;-53
2022/04/30 08:26:26;;;;;;;1.77;1.15;;;20.20;40.60;;;;;;5056263;28;20021;-52
2022/04/30 08:28:53;;;;;;;0.80;0.80;;;20.20;40.60;;;;;;5056647;28;20016;-52
2022/04/30 08:31:19;;;;;;;1.30;0.95;;;20.20;40.60;;;;;;5056673;28;20017;-53
2022/04/30 08:33:46;;;;;;;1.40;1.00;;;20.20;40.50;;;;;;5055261;28;20021;-53
2022/04/30 08:36:11;;;;;;;2.03;0.98;;;20.20;40.50;;;;;;5055830;28;20024;-53
2022/04/30 08:38:37;;;;;;;2.22;1.05;;;20.20;40.50;;;;;;5054070;28;20047;-52
2022/04/30 08:41:03;;;;;;;0.93;0.90;;;20.20;40.40;;;;;;5056448;28;20025;-54
2022/04/30 08:43:29;;;;;;;0.82;0.80;;;20.20;40.40;;;;;;5056997;28;20017;-52
2022/04/30 08:45:56;;;;;;;1.55;1.02;;;20.30;40.40;;;;;;5056396;28;20475;-52
2022/04/30 08:48:22;;;;;;;1.02;0.95;;;20.30;40.50;;;;;;5056445;28;20043;-53
2022/04/30 08:50:56;;;;;;;1.63;1.08;;;20.30;40.50;;;;;;5055796;28;20017;-54
2022/04/30 08:53:21;;;;;;;1.60;0.98;;;20.30;40.50;;;;;;5055362;28;20013;-52
2022/04/30 08:55:47;;;;;;;1.05;0.95;;;20.30;40.50;;;;;;5055785;28;20521;-52
2022/04/30 08:58:15;;;;;;;1.17;1.08;;;20.30;40.60;;;;;;5055737;28;20016;-50
2022/04/30 09:00:42;;;;;;;1.75;1.20;;;20.20;40.40;;;;;;5056001;28;20100;-51
2022/04/30 09:03:08;;;;;;;1.15;1.05;;;20.30;40.40;;;;;;5055403;28;20070;-50
2022/04/30 09:05:37;;;;;;;1.30;1.00;;;20.20;40.30;;;;;;5055562;28;20025;-52
2022/04/30 09:08:04;;;;;;;2.30;0.95;;;20.30;40.30;;;;;;5070787;28;20013;-52
2022/04/30 09:10:31;;;;;;;1.58;1.02;;;20.30;40.40;;;;;;5055411;28;20024;-54
2022/04/30 09:13:06;;;;;;;2.00;0.88;;;20.20;40.30;;;;;;5055301;28;20021;-54
2022/04/30 09:15:33;;;;;;;1.30;0.98;;;20.30;40.30;;;;;;5055901;28;20024;-49
2022/04/30 09:17:59;;;;;;;1.55;1.00;;;20.30;40.30;;;;;;5056322;28;20096;-52
2022/04/30 09:20:26;;;;;;;1.02;0.88;;;20.30;40.20;;;;;;5056194;28;20025;-52
2022/04/30 09:22:52;;;;;;;1.35;1.10;;;20.30;40.30;;;;;;5055562;28;20080;-51
2022/04/30 09:25:18;;;;;;;1.80;1.10;;;20.30;40.30;;;;;;5053983;28;20021;-50
2022/04/30 09:27:45;;;;;;;0.98;0.82;;;20.30;40.30;;;;;;5055029;28;20120;-53
2022/04/30 09:30:22;;;;;;;1.63;1.00;;;20.30;40.30;;;;;;5055491;28;20028;-54
2022/04/30 09:33:06;;;;;;;1.42;1.10;;;20.30;40.20;;;;;;5056052;28;20067;-54
2022/04/30 09:38:17;;;;;;;1.23;1.08;;;20.30;40.20;;;;;;5055780;28;20481;-52
2022/04/30 09:40:53;;;;;;;1.17;1.05;;;20.30;40.10;;;;;;5055400;28;20045;-53
2022/04/30 09:43:20;;;;;;;3.03;1.30;;;20.30;40.20;;;;;;5055681;28;20092;-51
2022/04/30 09:45:46;;;;;;;1.42;0.95;;;20.30;40.10;;;;;;5055428;28;20029;-54
2022/04/30 09:53:58;;;;;;;1.55;1.17;;;20.30;40.10;;;;;;5054929;28;20031;-53
2022/04/30 09:56:36;;;;;;;1.95;1.10;;;20.30;40.00;;;;;;5054329;28;20379;-52
2022/04/30 09:59:04;;;;;;;1.27;1.17;;;20.30;40.00;;;;;;5070113;28;20021;-53
2022/04/30 10:01:31;;;;;;;1.70;1.08;;;20.30;40.10;;;;;;5054493;28;20494;-48
2022/04/30 10:03:57;;;;;;;1.20;1.10;;;20.30;40.00;;;;;;5053375;28;20013;-51
2022/04/30 10:06:22;;;;;;;2.05;0.90;;;20.30;40.10;;;;;;5054685;28;20031;-54
2022/04/30 10:08:49;;;;;;;1.23;1.10;;;20.30;40.10;;;;;;5054197;28;20484;-52
2022/04/30 10:11:26;;;;;;;1.10;1.00;;;20.30;40.00;;;;;;5054401;28;20020;-53
2022/04/30 10:14:14;;;;;;;2.83;1.10;;;20.30;40.00;;;;;;5053945;28;20017;-52
2022/04/30 10:16:42;;;;;;;0.93;0.93;;;20.40;40.00;;;;;;5054998;28;20017;-52
2022/04/30 10:19:15;;;;;;;1.63;1.00;;;20.40;40.00;;;;;;5053347;28;20017;-52
2022/04/30 10:21:41;;;;;;;1.50;1.10;;;20.30;40.00;;;;;;5053866;28;20534;-50
2022/04/30 10:24:09;;;;;;;1.52;1.10;;;20.30;40.00;;;;;;5054214;28;20009;-50
2022/04/30 10:26:36;;;;;;;2.30;1.38;;;20.30;40.00;;;;;;5054253;28;20033;-49
2022/04/30 10:29:11;;;;;;;1.45;1.23;;;20.30;39.90;;;;;;5054611;28;20045;-52
2022/04/30 10:31:44;;;;;;;1.67;1.00;;;20.30;39.90;;;;;;5055094;28;20104;-52
2022/04/30 10:34:10;;;;;;;3.08;1.23;;;20.30;39.90;;;;;;5054905;28;20021;-52
2022/04/30 10:36:38;;;;;;;1.00;0.90;;;20.40;40.00;;;;;;5053196;28;20067;-55
2022/04/30 10:39:06;;;;;;;2.47;1.02;;;20.30;39.90;;;;;;5054596;28;20092;-51
2022/04/30 10:41:42;;;;;;;1.20;1.10;;;20.40;39.90;;;;;;5054213;28;20079;-50
2022/04/30 10:44:08;;;;;;;1.17;1.00;;;20.40;39.90;;;;;;5054936;28;20075;-55
2022/04/30 10:46:38;;;;;;;1.42;1.20;;;20.30;39.80;;;;;;5054483;28;20472;-55
2022/04/30 10:49:05;;;;;;;1.38;1.20;;;20.30;39.90;;;;;;5055520;28;20017;-54
2022/04/30 10:51:39;;;;;;;1.52;1.15;;;20.30;39.90;;;;;;5055018;28;20468;-53
2022/04/30 10:54:18;;;;;;;1.27;1.00;;;20.30;40.00;;;;;;5054520;28;20059;-52
2022/04/30 10:56:44;;;;;;;1.40;1.15;;;20.30;40.00;;;;;;5055048;28;20372;-54
2022/04/30 10:59:10;;;;;;;1.60;1.40;;;20.30;39.90;;;;;;5053806;28;20123;-53
2022/04/30 11:01:36;;;;;;;2.15;1.25;;;20.30;40.00;;;;;;5053096;28;20056;-50
2022/04/30 11:04:02;;;;;;;1.38;0.90;;;20.40;39.90;;;;;;5055704;28;20021;-50
2022/04/30 11:06:30;;;;;;;1.45;1.15;;;20.30;39.90;;;;;;5055695;28;20102;-51
2022/04/30 11:09:06;;;;;;;1.92;1.08;;;20.30;39.90;;;;;;5053570;28;20135;-56
2022/04/30 11:11:32;;;;;;;1.55;1.13;;;20.30;39.90;;;;;;5054909;28;20425;-53
2022/04/30 11:14:01;;;;;;;1.17;1.08;;;20.40;39.90;;;;;;5054492;28;20009;-53
2022/04/30 11:16:49;;;;;;;2.00;1.30;;;20.40;39.90;;;;;;5054138;28;20059;-55
2022/04/30 11:19:20;;;;;;;1.23;1.10;;;20.40;39.90;;;;;;5054969;28;20048;-56
2022/04/30 11:21:53;;;;;;;1.50;1.30;;;20.40;39.70;;;;;;5055506;28;20059;-54
2022/04/30 11:24:29;;;;;;;1.30;1.00;;;20.50;39.70;;;;;;5071293;28;20473;-55
2022/04/30 11:26:58;;;;;;;1.52;1.23;;;20.50;39.70;;;;;;5054943;28;20024;-52
2022/04/30 11:29:24;;;;;;;1.95;1.25;;;20.50;39.60;;;;;;5055446;28;20100;-52
2022/04/30 11:31:54;;;;;;;1.10;1.00;;;20.50;39.60;;;;;;5054546;28;20706;-51
2022/04/30 11:34:38;;;;;;;1.50;1.35;;;20.50;39.60;;;;;;5055697;28;20464;-53
2022/04/30 11:37:06;;;;;;;1.33;1.23;;;20.50;39.50;;;;;;5053079;28;20021;-51
2022/04/30 11:39:34;;;;;;;1.40;1.08;;;20.40;39.60;;;;;;5053749;28;20537;-56
2022/04/30 11:42:00;;;;;;;2.15;1.30;;;20.40;39.70;;;;;;5053941;28;20022;-50
2022/04/30 11:44:27;;;;;;;1.67;1.23;;;20.40;40.30;;;;;;5053604;28;20028;-49
2022/04/30 11:46:53;;;;;;;1.55;1.10;;;20.40;39.80;;;;;;5054240;28;20040;-53
2022/04/30 11:49:21;;;;;;;1.23;1.13;;;20.40;39.80;;;;;;5052784;28;20082;-52
2022/04/30 11:51:48;;;;;;;1.25;1.15;;;20.40;39.80;;;;;;5054010;28;20032;-51
2022/04/30 11:54:21;;;;;;;1.45;1.20;;;20.40;39.80;;;;;;5069335;28;20096;-55
2022/04/30 11:56:46;;;;;;;1.35;1.17;;;20.40;39.80;;;;;;5053432;28;20016;-53
2022/04/30 11:59:12;;;;;;;1.45;1.20;;;20.40;39.80;;;;;;5052408;28;20070;-53
2022/04/30 12:01:39;;;;;;;1.60;1.20;;;20.50;39.70;;;;;;5069388;28;20111;-53
2022/04/30 12:04:08;;;;;;;2.03;1.30;;;20.40;39.70;;;;;;5054414;28;20009;-51
2022/04/30 12:06:34;;;;;;;1.85;1.20;;;20.40;39.70;;;;;;5053735;28;20021;-52
2022/04/30 12:09:00;;;;;;;1.85;1.33;;;20.40;39.80;;;;;;5052584;28;20013;-53
2022/04/30 12:11:26;;;;;;;1.70;1.33;;;20.40;39.80;;;;;;5053068;28;20155;-53
2022/04/30 12:14:05;;;;;;;1.38;1.08;;;20.30;39.80;;;;;;5054991;28;20036;-52
2022/04/30 12:16:41;;;;;;;1.33;1.20;;;20.40;39.90;;;;;;5055094;28;20025;-54
2022/04/30 12:25:10;;;;;;;1.60;1.40;;;20.30;39.80;;;;;;5058267;28;20032;-52
2022/04/30 12:27:40;;;;;;;1.35;1.08;;;20.40;39.90;;;;;;5057868;28;20017;-54
2022/04/30 12:30:14;;;;;;;1.75;1.20;;;20.30;39.80;;;;;;5057271;28;20013;-54
2022/04/30 12:33:00;;;;;;;1.48;1.15;;;20.30;39.80;;;;;;5056894;28;20017;-56
2022/04/30 12:35:31;;;;;;;1.42;1.13;;;20.30;39.80;;;;;;5057452;28;20017;-52
2022/04/30 12:38:06;;;;;;;1.05;1.00;;;20.40;39.90;;;;;;5057405;28;20143;-55
2022/04/30 12:40:35;;;;;;;3.40;1.20;;;20.30;39.90;;;;;;5056573;28;20036;-50
2022/04/30 12:43:02;;;;;;;1.20;1.10;;;20.30;39.90;;;;;;5071482;28;20017;-53
2022/04/30 12:45:28;;;;;;;1.63;1.40;;;20.30;39.90;;;;;;5055653;28;20021;-53
2022/04/30 12:47:54;;;;;;;1.38;1.13;;;20.30;39.90;;;;;;5054845;28;20040;-55
2022/04/30 12:50:20;;;;;;;1.73;1.20;;;20.30;40.00;;;;;;5055983;28;20025;-51
2022/04/30 12:52:46;;;;;;;1.48;1.25;;;20.30;40.00;;;;;;5038558;28;20014;-52
2022/04/30 12:55:14;;;;;;;1.20;1.10;;;20.30;40.00;;;;;;5054785;28;20075;-53
2022/04/30 12:57:39;;;;;;;1.40;1.17;;;20.30;40.00;;;;;;5056211;28;20052;-53
2022/04/30 13:00:06;;;;;;;5.05;1.30;;;20.30;40.00;;;;;;5054758;28;20429;-53
2022/04/30 13:02:33;;;;;;;1.20;1.10;;;20.30;40.00;;;;;;5056051;28;20028;-52
2022/04/30 13:05:00;;;;;;;2.22;1.48;;;20.30;40.00;;;;;;5056654;28;20017;-55
2022/04/30 13:07:27;;;;;;;1.88;1.40;;;20.30;40.00;;;;;;5056914;28;20021;-52
2022/04/30 13:15:22;;;;;;;2.25;1.23;;;20.30;39.90;;;;;;5058471;28;20023;-57
2022/04/30 13:17:49;;;;;;;1.70;1.20;;;20.30;40.00;;;;;;5058202;28;20013;-55
2022/04/30 13:20:15;;;;;;;1.42;1.15;;;20.20;40.00;;;;;;5056661;28;20017;-55
2022/04/30 13:22:41;;;;;;;1.38;1.17;;;20.20;40.00;;;;;;5056969;28;20048;-55
2022/04/30 13:25:11;;;;;;;1.85;1.20;;;20.20;40.00;;;;;;5055502;28;20029;-53
2022/04/30 13:27:36;;;;;;;1.65;1.10;;;20.20;40.10;;;;;;5055865;28;20037;-56
2022/04/30 13:30:05;;;;;;;1.20;1.10;;;20.20;40.00;;;;;;5054444;28;20017;-54
2022/04/30 13:32:31;;;;;;;1.15;1.08;;;20.20;40.00;;;;;;5055891;28;20028;-53
2022/04/30 13:34:57;;;;;;;2.03;1.30;;;20.20;40.00;;;;;;5054722;28;20476;-53